Time,TemperatureF,DewpointF,PressureIn,WindDirection,WindDirectionDegrees,WindSpeedMPH,WindSpeedGustMPH,Humidity,HourlyPrecipIn,Conditions,Clouds,dailyrainin,SoftwareType,DateUTC
2013-05-04 00:06:00,59.9,41.0,29.79,WSW,252,0.0,4.0,50,0.00,,,0.00,weatherlink.com 1.10,2013-05-04 07:06:00,
2013-05-04 00:31:00,60.0,41.0,29.79,WSW,252,0.0,2.0,50,0.00,,,0.00,weatherlink.com 1.10,2013-05-04 07:31:00,
2013-05-04 00:50:00,59.0,43.0,29.78,WSW,252,0.0,0.0,55,0.00,,,0.00,weatherlink.com 1.10,2013-05-04 07:50:00,
2013-05-04 01:27:00,59.4,43.0,29.77,WSW,252,0.0,0.0,56,0.00,,,0.00,weatherlink.com 1.10,2013-05-04 08:27:00,
2013-05-04 01:36:00,58.7,43.0,29.76,WSW,245,1.0,3.0,57,0.00,,,0.00,weatherlink.com 1.10,2013-05-04 08:36:00,
2013-05-04 01:51:00,58.7,43.0,29.77,WSW,245,0.0,3.0,57,0.00,,,0.00,weatherlink.com 1.10,2013-05-04 08:51:00,
2013-05-04 02:26:00,59.9,42.0,29.76,WSW,245,0.0,1.0,51,0.00,,,0.00,weatherlink.com 1.10,2013-05-04 09:26:00,
2013-05-04 02:35:00,67.1,35.0,29.75,WSW,255,0.0,3.0,30,0.00,,,0.00,weatherlink.com 1.10,2013-05-04 09:35:00,
2013-05-04 02:50:00,71.2,34.0,29.75,ESE,114,3.0,7.0,26,0.00,,,0.00,weatherlink.com 1.10,2013-05-04 09:50:00,
2013-05-04 03:26:00,72.1,33.0,29.75,North,10,0.0,5.0,24,0.00,,,0.00,weatherlink.com 1.10,2013-05-04 10:26:00,
2013-05-04 03:35:00,74.4,33.0,29.74,East,86,0.0,12.0,22,0.00,,,0.00,weatherlink.com 1.10,2013-05-04 10:35:00,
2013-05-04 03:50:00,74.2,31.0,29.74,SSE,164,0.0,3.0,20,0.00,,,0.00,weatherlink.com 1.10,2013-05-04 10:50:00,
2013-05-04 04:26:00,75.4,29.0,29.74,SE,132,2.0,8.0,18,0.00,,,0.00,weatherlink.com 1.10,2013-05-04 11:26:00,
2013-05-04 04:35:00,74.2,29.0,29.74,East,86,0.0,9.0,19,0.00,,,0.00,weatherlink.com 1.10,2013-05-04 11:35:00,
2013-05-04 04:50:00,73.4,31.0,29.74,East,85,0.0,9.0,21,0.00,,,0.00,weatherlink.com 1.10,2013-05-04 11:50:00,
2013-05-04 05:26:00,73.2,28.0,29.74,ESE,102,1.0,5.0,19,0.00,,,0.00,weatherlink.com 1.10,2013-05-04 12:26:00,
2013-05-04 05:50:00,73.5,27.0,29.73,ESE,107,10.0,12.0,18,0.00,,,0.00,weatherlink.com 1.10,2013-05-04 12:50:00,
2013-05-04 06:26:00,73.9,28.0,29.72,SSW,192,4.0,10.0,18,0.00,,,0.00,weatherlink.com 1.10,2013-05-04 13:26:00,
2013-05-04 06:35:00,73.5,27.0,29.71,SE,126,1.0,9.0,18,0.00,,,0.00,weatherlink.com 1.10,2013-05-04 13:35:00,
2013-05-04 06:50:00,72.9,29.0,29.72,NE,36,1.0,7.0,20,0.00,,,0.00,weatherlink.com 1.10,2013-05-04 13:50:00,
2013-05-04 07:26:00,73.0,30.0,29.71,NE,34,3.0,11.0,20,0.00,,,0.00,weatherlink.com 1.10,2013-05-04 14:26:00,
2013-05-04 07:35:00,74.3,32.0,29.71,SSW,198,1.0,12.0,21,0.00,,,0.00,weatherlink.com 1.10,2013-05-04 14:35:00,
2013-05-04 07:50:00,75.5,32.0,29.71,SSE,168,1.0,9.0,20,0.00,,,0.00,weatherlink.com 1.10,2013-05-04 14:50:00,
2013-05-04 08:26:00,75.7,32.0,29.71,South,183,5.0,7.0,20,0.00,,,0.00,weatherlink.com 1.10,2013-05-04 15:26:00,
2013-05-04 08:35:00,76.2,32.0,29.70,ESE,115,5.0,8.0,20,0.00,,,0.00,weatherlink.com 1.10,2013-05-04 15:35:00,
2013-05-04 08:50:00,76.5,30.0,29.69,SE,143,2.0,10.0,18,0.00,,,0.00,weatherlink.com 1.10,2013-05-04 15:50:00,
2013-05-04 09:23:00,76.7,31.0,29.68,ESE,112,2.0,10.0,19,0.00,,,0.00,weatherlink.com 1.10,2013-05-04 16:23:00,
2013-05-04 09:36:00,78.4,34.0,29.68,SE,142,0.0,7.0,20,0.00,,,0.00,weatherlink.com 1.10,2013-05-04 16:36:00,
2013-05-04 09:51:00,79.1,36.0,29.67,East,80,3.0,4.0,21,0.00,,,0.00,weatherlink.com 1.10,2013-05-04 16:51:00,
2013-05-04 10:23:00,79.6,35.0,29.67,ENE,61,3.0,9.0,20,0.00,,,0.00,weatherlink.com 1.10,2013-05-04 17:23:00,
2013-05-04 10:35:00,81.7,37.0,29.67,ESE,108,0.0,8.0,20,0.00,,,0.00,weatherlink.com 1.10,2013-05-04 17:35:00,
2013-05-04 10:50:00,81.9,39.0,29.67,South,182,5.0,6.0,22,0.00,,,0.00,weatherlink.com 1.10,2013-05-04 17:50:00,
2013-05-04 11:26:00,82.5,41.0,29.67,East,96,0.0,6.0,23,0.00,,,0.00,weatherlink.com 1.10,2013-05-04 18:26:00,
2013-05-04 11:36:00,84.0,38.0,29.66,East,89,0.0,7.0,19,0.00,,,0.00,weatherlink.com 1.10,2013-05-04 18:36:00,
2013-05-04 11:51:00,83.6,30.0,29.65,East,93,2.0,6.0,14,0.00,,,0.00,weatherlink.com 1.10,2013-05-04 18:51:00,
2013-05-04 12:26:00,84.8,37.0,29.64,SW,223,2.0,7.0,18,0.00,,,0.00,weatherlink.com 1.10,2013-05-04 19:26:00,
2013-05-04 12:35:00,85.6,31.0,29.62,East,79,1.0,7.0,14,0.00,,,0.00,weatherlink.com 1.10,2013-05-04 19:35:00,
2013-05-04 12:50:00,86.5,28.0,29.62,ENE,78,0.0,4.0,12,0.00,,,0.00,weatherlink.com 1.10,2013-05-04 19:50:00,
2013-05-04 13:26:00,86.1,30.0,29.61,East,97,0.0,4.0,13,0.00,,,0.00,weatherlink.com 1.10,2013-05-04 20:26:00,
2013-05-04 13:35:00,85.9,40.0,29.59,NNW,343,1.0,6.0,20,0.00,,,0.00,weatherlink.com 1.10,2013-05-04 20:35:00,
2013-05-04 13:50:00,86.1,44.0,29.59,East,82,5.0,10.0,23,0.00,,,0.00,weatherlink.com 1.10,2013-05-04 20:50:00,
2013-05-04 14:23:00,85.1,44.0,29.59,WSW,257,3.0,7.0,24,0.00,,,0.00,weatherlink.com 1.10,2013-05-04 21:23:00,
2013-05-04 14:35:00,84.2,41.0,29.58,ENE,64,3.0,8.0,22,0.00,,,0.00,weatherlink.com 1.10,2013-05-04 21:35:00,
2013-05-04 14:50:00,82.6,42.0,29.58,NNE,29,5.0,10.0,24,0.00,,,0.00,weatherlink.com 1.10,2013-05-04 21:50:00,
2013-05-04 15:25:00,82.3,44.0,29.57,NNE,27,4.0,8.0,26,0.00,,,0.00,weatherlink.com 1.10,2013-05-04 22:25:00,
2013-05-04 15:36:00,79.4,43.0,29.58,ENE,67,3.0,10.0,27,0.00,,,0.00,weatherlink.com 1.10,2013-05-04 22:36:00,
2013-05-04 15:51:00,78.8,43.0,29.58,East,82,1.0,7.0,28,0.00,,,0.00,weatherlink.com 1.10,2013-05-04 22:51:00,
2013-05-04 16:25:00,77.6,42.0,29.58,NNW,347,2.0,13.0,28,0.00,,,0.00,weatherlink.com 1.10,2013-05-04 23:25:00,
2013-05-04 16:35:00,77.4,43.0,29.57,East,86,0.0,4.0,29,0.00,,,0.00,weatherlink.com 1.10,2013-05-04 23:35:00,
2013-05-04 16:50:00,77.7,39.0,29.57,ENE,60,1.0,5.0,25,0.00,,,0.00,weatherlink.com 1.10,2013-05-04 23:50:00,
2013-05-04 17:26:00,76.7,40.0,29.56,NW,305,1.0,6.0,27,0.00,,,0.00,weatherlink.com 1.10,2013-05-05 00:26:00,
2013-05-04 17:35:00,72.6,41.0,29.57,NW,322,0.0,7.0,32,0.00,,,0.00,weatherlink.com 1.10,2013-05-05 00:35:00,
2013-05-04 17:50:00,71.0,38.0,29.57,NE,44,0.0,9.0,30,0.00,,,0.00,weatherlink.com 1.10,2013-05-05 00:50:00,
2013-05-04 18:26:00,69.9,39.0,29.57,East,101,0.0,3.0,32,0.00,,,0.00,weatherlink.com 1.10,2013-05-05 01:26:00,
2013-05-04 18:35:00,68.0,39.0,29.56,NNE,26,0.0,2.0,35,0.00,,,0.00,weatherlink.com 1.10,2013-05-05 01:35:00,
2013-05-04 18:50:00,67.6,39.0,29.55,WSW,237,0.0,4.0,35,0.00,,,0.00,weatherlink.com 1.10,2013-05-05 01:50:00,
2013-05-04 19:26:00,67.6,42.0,29.55,North,360,0.0,3.0,40,0.00,,,0.00,weatherlink.com 1.10,2013-05-05 02:26:00,
2013-05-04 19:35:00,65.4,48.0,29.55,West,264,0.0,5.0,54,0.00,,,0.00,weatherlink.com 1.10,2013-05-05 02:35:00,
2013-05-04 19:50:00,63.8,49.0,29.55,NNW,345,0.0,5.0,59,0.00,,,0.00,weatherlink.com 1.10,2013-05-05 02:50:00,
2013-05-04 20:25:00,62.8,49.0,29.56,West,278,1.0,3.0,61,0.00,,,0.00,weatherlink.com 1.10,2013-05-05 03:25:00,
2013-05-04 20:35:00,59.5,48.0,29.56,WNW,300,0.0,1.0,67,0.00,,,0.00,weatherlink.com 1.10,2013-05-05 03:35:00,
2013-05-04 20:50:00,57.9,48.0,29.57,WSW,244,0.0,2.0,70,0.00,,,0.00,weatherlink.com 1.10,2013-05-05 03:50:00,
2013-05-04 21:24:00,56.9,48.0,29.57,SSW,202,0.0,3.0,73,0.00,,,0.00,weatherlink.com 1.10,2013-05-05 04:24:00,
2013-05-04 21:35:00,54.3,48.0,29.58,SSW,202,0.0,1.0,79,0.00,,,0.00,weatherlink.com 1.10,2013-05-05 04:35:00,
2013-05-04 21:50:00,53.5,48.0,29.58,ESE,115,0.0,2.0,81,0.00,,,0.00,weatherlink.com 1.10,2013-05-05 04:50:00,
2013-05-04 22:26:00,52.9,48.0,29.58,ESE,105,0.0,2.0,83,0.00,,,0.00,weatherlink.com 1.10,2013-05-05 05:26:00,
2013-05-04 22:35:00,51.2,47.0,29.59,North,11,0.0,2.0,86,0.00,,,0.00,weatherlink.com 1.10,2013-05-05 05:35:00,
2013-05-04 22:50:00,50.8,47.0,29.59,North,11,0.0,1.0,88,0.00,,,0.00,weatherlink.com 1.10,2013-05-05 05:50:00,
2013-05-04 23:26:00,50.8,48.0,29.59,NE,44,2.0,3.0,89,0.00,,,0.00,weatherlink.com 1.10,2013-05-05 06:26:00,
2013-05-04 23:35:00,50.8,48.0,29.60,East,80,0.0,3.0,90,0.00,,,0.00,weatherlink.com 1.10,2013-05-05 06:35:00,
2013-05-04 23:50:00,50.9,48.0,29.61,ENE,74,0.0,3.0,90,0.00,,,0.00,weatherlink.com 1.10,2013-05-05 06:50:00,